Time;durP1;ratioP1;P1;durP2;ratioP2;P2;SDS_P1;SDS_P2;PMS_P1;PMS_P2;Temp;Humidity;BMP_temperature;BMP_pressure;BME280_temperature;BME280_humidity;BME280_pressure;Samples;Min_cycle;Max_cycle;Signal;HPM_P1;HPM_P2
2023/03/15 00:02:25;;;;;;;;;;;;;;;13.30;71.64;99559.03;4967363;28;19914;-82
2023/03/15 00:05:17;;;;;;;;;;;;;;;13.11;70.73;99559.84;4965205;28;19914;-82
2023/03/15 00:08:09;;;;;;;;;;;;;;;13.10;71.70;99571.09;4969490;28;19914;-82
2023/03/15 00:11:02;;;;;;;;;;;;;;;13.41;68.90;99567.44;4973149;28;20305;-82
2023/03/15 00:13:54;;;;;;;;;;;;;;;13.36;69.49;99573.97;4973481;28;19918;-82
2023/03/15 00:16:46;;;;;;;;;;;;;;;13.29;68.52;99587.50;4972065;28;19915;-83
2023/03/15 00:19:38;;;;;;;;;;;;;;;13.19;69.10;99588.88;4967050;28;20294;-82
2023/03/15 00:22:27;;;;;;;;;;;;;;;13.12;69.50;99593.38;4973026;28;19914;-83
2023/03/15 00:25:19;;;;;;;;;;;;;;;13.25;69.17;99592.09;4976338;28;20334;-82
2023/03/15 00:28:11;;;;;;;;;;;;;;;13.28;68.07;99602.28;4978340;28;19914;-83
2023/03/15 00:31:04;;;;;;;;;;;;;;;13.11;69.09;99605.41;4975908;28;19918;-83
2023/03/15 00:33:56;;;;;;;;;;;;;;;13.03;70.33;99618.13;4968147;28;20293;-83
2023/03/15 00:36:48;;;;;;;;;;;;;;;12.85;70.32;99622.41;4974596;28;19914;-83
2023/03/15 00:39:40;;;;;;;;;;;;;;;12.76;68.71;99624.53;4978350;28;19918;-83
2023/03/15 00:42:32;;;;;;;;;;;;;;;12.86;68.80;99624.78;4980525;28;20378;-83
2023/03/15 00:45:24;;;;;;;;;;;;;;;12.89;68.14;99619.78;4976189;28;20418;-83
2023/03/15 00:48:16;;;;;;;;;;;;;;;12.76;67.72;99624.53;4969149;28;19914;-82
2023/03/15 00:51:04;;;;;;;;;;;;;;;12.53;66.29;99620.91;4969529;28;20378;-82
2023/03/15 00:53:56;;;;;;;;;;;;;;;12.27;66.09;99627.72;4967501;28;19914;-82
2023/03/15 00:56:48;;;;;;;;;;;;;;;12.07;68.66;99631.50;4980377;28;19914;-82
2023/03/15 00:59:41;;;;;;;;;;;;;;;12.08;70.33;99627.66;4966464;28;19922;-82
2023/03/15 01:02:33;;;;;;;;;;;;;;;12.08;71.21;99624.91;4975759;28;20302;-82
2023/03/15 01:05:25;;;;;;;;;;;;;;;11.90;71.53;99629.91;4981201;28;19914;-82
2023/03/15 01:08:14;;;;;;;;;;;;;;;12.09;70.92;99634.66;4978779;28;19914;-82
2023/03/15 01:11:10;;;;;;;;;;;;;;;12.13;70.11;99641.00;4975670;28;20523;-82
2023/03/15 01:14:02;;;;;;;;;;;;;;;12.23;70.06;99639.69;4963698;28;19923;-82
2023/03/15 01:16:54;;;;;;;;;;;;;;;12.32;70.27;99632.13;4979039;28;19921;-82
2023/03/15 01:19:46;;;;;;;;;;;;;;;12.29;69.71;99635.56;4970954;28;19918;-83
2023/03/15 01:22:38;;;;;;;;;;;;;;;12.30;69.44;99634.38;4972596;28;20285;-82
2023/03/15 01:25:27;;;;;;;;;;;;;;;12.36;69.50;99641.16;4970999;28;19914;-82
2023/03/15 01:28:19;;;;;;;;;;;;;;;12.19;70.26;99642.31;4973919;28;19914;-82
2023/03/15 01:31:15;;;;;;;;;;;;;;;12.17;70.46;99652.78;4977487;28;19914;-82
2023/03/15 01:34:07;;;;;;;;;;;;;;;12.10;69.63;99651.78;4973650;28;19914;-82
2023/03/15 01:36:59;;;;;;;;;;;;;;;11.96;69.90;99654.97;4972882;28;19914;-83
2023/03/15 01:39:54;;;;;;;;;;;;;;;11.87;68.32;99659.78;4981428;28;19922;-83
2023/03/15 01:42:56;;;;;;;;;;;;;;;11.76;69.33;99656.00;4980300;28;19914;-81
2023/03/15 01:45:55;;;;;;;;;;;;;;;11.71;68.94;99661.66;4979324;28;19914;-81
2023/03/15 01:48:48;;;;;;;;;;;;;;;11.95;67.90;99667.78;4971682;28;20297;-81
2023/03/15 01:51:44;;;;;;;;;;;;;;;11.97;68.08;99653.81;4965833;28;19914;-82
2023/03/15 01:54:38;;;;;;;;;;;;;;;11.98;67.80;99658.94;4976000;28;20397;-81
2023/03/15 01:57:33;;;;;;;;;;;;;;;12.03;68.13;99654.38;4963383;28;19914;-81
2023/03/15 02:00:25;;;;;;;;;;;;;;;11.96;67.82;99655.75;4979181;28;19921;-81
2023/03/15 02:03:20;;;;;;;;;;;;;;;12.02;68.74;99656.28;4978339;28;19914;-80
2023/03/15 02:06:12;;;;;;;;;;;;;;;12.21;67.32;99650.13;4963956;28;19914;-80
2023/03/15 02:09:13;;;;;;;;;;;;;;;12.21;66.58;99641.97;4974456;28;19922;-80
2023/03/15 02:12:07;;;;;;;;;;;;;;;11.99;67.57;99641.41;4974219;28;19914;-80
2023/03/15 02:14:59;;;;;;;;;;;;;;;12.12;66.89;99638.63;4975188;28;19914;-80
2023/03/15 02:17:51;;;;;;;;;;;;;;;12.04;66.84;99634.91;4978298;28;19918;-80
2023/03/15 02:20:52;;;;;;;;;;;;;;;12.02;65.96;99630.97;4972333;28;19922;-80
2023/03/15 02:23:46;;;;;;;;;;;;;;;11.93;67.44;99631.16;4966589;28;19917;-81
2023/03/15 02:26:38;;;;;;;;;;;;;;;12.00;66.46;99634.84;4973649;28;19914;-80
2023/03/15 02:29:31;;;;;;;;;;;;;;;11.97;65.28;99632.03;4976274;28;19914;-79
2023/03/15 02:32:23;;;;;;;;;;;;;;;11.72;67.00;99634.09;4978469;28;20384;-80
2023/03/15 02:35:23;;;;;;;;;;;;;;;11.92;67.19;99633.09;4990684;28;19914;-80
2023/03/15 02:38:15;;;;;;;;;;;;;;;11.97;66.32;99637.47;4974365;28;19918;-80
2023/03/15 02:41:08;;;;;;;;;;;;;;;11.74;64.75;99639.97;4986759;28;20300;-81
2023/03/15 02:44:01;;;;;;;;;;;;;;;11.69;66.17;99633.97;4960038;29;20378;-80
2023/03/15 02:46:54;;;;;;;;;;;;;;;11.57;68.33;99640.28;4962236;28;19915;-80
2023/03/15 02:49:48;;;;;;;;;;;;;;;11.80;66.97;99654.94;4971728;28;19914;-80
2023/03/15 02:52:40;;;;;;;;;;;;;;;11.67;66.12;99647.97;5000839;28;19921;-80
2023/03/15 02:55:36;;;;;;;;;;;;;;;11.61;67.59;99643.09;4974580;28;20313;-80
2023/03/15 02:58:27;;;;;;;;;;;;;;;11.58;68.48;99655.47;4995782;28;19918;-81
2023/03/15 03:01:19;;;;;;;;;;;;;;;11.55;68.85;99654.25;5005024;28;19913;-81
2023/03/15 03:04:11;;;;;;;;;;;;;;;11.76;68.03;99659.50;4971810;28;19915;-80
2023/03/15 03:07:03;;;;;;;;;;;;;;;11.69;64.96;99653.03;4964125;28;19914;-80
2023/03/15 03:10:00;;;;;;;;;;;;;;;11.61;66.86;99660.22;4976446;28;19914;-80
2023/03/15 03:12:54;;;;;;;;;;;;;;;11.26;65.50;99667.41;4970002;28;19917;-79
2023/03/15 03:15:57;;;;;;;;;;;;;;;11.18;67.17;99662.88;4994517;28;19921;-79
2023/03/15 03:18:48;;;;;;;;;;;;;;;11.25;66.85;99671.25;4997336;28;19918;-80
2023/03/15 03:21:40;;;;;;;;;;;;;;;11.36;66.23;99661.47;4997977;28;19914;-80
2023/03/15 03:24:31;;;;;;;;;;;;;;;11.25;64.95;99660.38;4998560;28;20297;-80
2023/03/15 03:27:23;;;;;;;;;;;;;;;11.36;65.87;99673.16;4972824;28;19914;-81
2023/03/15 03:30:14;;;;;;;;;;;;;;;11.18;67.46;99676.47;4977438;28;20297;-81
2023/03/15 03:33:12;;;;;;;;;;;;;;;11.07;69.03;99671.53;4967460;28;19914;-81
2023/03/15 03:36:04;;;;;;;;;;;;;;;11.06;67.76;99674.59;4978794;28;19914;-81
2023/03/15 03:38:56;;;;;;;;;;;;;;;11.42;65.27;99682.66;4968684;28;19918;-81
2023/03/15 03:41:49;;;;;;;;;;;;;;;11.21;65.70;99694.84;4964191;28;20526;-81
2023/03/15 03:44:41;;;;;;;;;;;;;;;11.19;65.11;99702.56;4964848;28;19914;-83
2023/03/15 03:47:33;;;;;;;;;;;;;;;11.04;64.44;99699.41;4969936;28;19914;-82
2023/03/15 03:50:25;;;;;;;;;;;;;;;10.96;64.77;99697.63;4967481;28;19914;-82
2023/03/15 03:53:14;;;;;;;;;;;;;;;10.81;65.30;99695.63;4980215;28;19914;-81
2023/03/15 03:56:10;;;;;;;;;;;;;;;10.68;66.55;99686.66;4987250;28;19914;-81
2023/03/15 03:59:03;;;;;;;;;;;;;;;10.70;67.31;99698.00;4968420;28;19919;-82
2023/03/15 04:02:08;;;;;;;;;;;;;;;10.67;67.49;99701.38;4976870;28;19915;-81
2023/03/15 04:05:01;;;;;;;;;;;;;;;10.64;66.01;99707.50;4974042;28;19913;-81
2023/03/15 04:07:53;;;;;;;;;;;;;;;10.63;65.48;99710.56;4978474;28;19914;-82
2023/03/15 04:10:47;;;;;;;;;;;;;;;10.58;66.55;99708.06;4976133;28;19914;-82
2023/03/15 04:13:39;;;;;;;;;;;;;;;10.61;66.41;99707.41;4984257;28;19914;-82
2023/03/15 04:16:31;;;;;;;;;;;;;;;10.48;65.22;99711.22;4975396;28;19914;-80
2023/03/15 04:19:26;;;;;;;;;;;;;;;10.54;65.71;99712.59;4980431;28;19926;-81
2023/03/15 04:22:18;;;;;;;;;;;;;;;10.76;65.19;99728.47;4972548;28;19914;-81
2023/03/15 04:25:33;;;;;;;;;;;;;;;10.51;64.72;99724.16;4978594;28;19914;-81
2023/03/15 04:28:36;;;;;;;;;;;;;;;10.54;66.10;99718.03;4973406;28;19914;-81
2023/03/15 04:31:39;;;;;;;;;;;;;;;10.37;65.32;99720.97;4974242;28;19914;-81
2023/03/15 04:34:42;;;;;;;;;;;;;;;10.37;66.76;99724.47;4983242;28;19914;-81
2023/03/15 04:37:45;;;;;;;;;;;;;;;10.12;66.50;99726.31;4973635;28;19914;-82
2023/03/15 04:41:13;;;;;;;;;;;;;;;10.42;65.86;99731.59;4971366;28;19922;-81
2023/03/15 04:44:29;;;;;;;;;;;;;;;10.37;65.08;99734.53;4972540;28;19914;-81
2023/03/15 04:47:51;;;;;;;;;;;;;;;10.41;66.00;99736.28;4972493;28;19914;-81
2023/03/15 04:50:52;;;;;;;;;;;;;;;10.35;67.40;99740.34;4989325;22;19921;-84
2023/03/15 04:54:01;;;;;;;;;;;;;;;10.48;66.71;99741.94;4983078;28;20389;-82
2023/03/15 04:57:13;;;;;;;;;;;;;;;10.19;66.24;99742.09;4970757;28;19918;-81
2023/03/15 05:00:26;;;;;;;;;;;;;;;10.10;66.43;99757.69;4999758;28;19918;-80
2023/03/15 05:03:41;;;;;;;;;;;;;;;9.91;66.43;99766.31;4957490;28;19914;-80
2023/03/15 05:06:51;;;;;;;;;;;;;;;10.13;65.51;99778.72;4974306;28;19914;-82
2023/03/15 05:09:53;;;;;;;;;;;;;;;10.12;66.38;99777.94;4976060;28;20386;-82
2023/03/15 05:13:12;;;;;;;;;;;;;;;10.04;65.70;99786.97;4967329;28;19914;-82
2023/03/15 05:16:26;;;;;;;;;;;;;;;10.13;66.53;99789.59;4975185;28;19914;-82
2023/03/15 05:19:20;;;;;;;;;;;;;;;10.07;67.42;99789.00;4979718;28;19918;-80
2023/03/15 05:22:32;;;;;;;;;;;;;;;9.99;66.33;99780.94;4975666;28;19914;-83
2023/03/15 05:25:50;;;;;;;;;;;;;;;10.08;66.90;99766.16;4975653;28;19914;-81
2023/03/15 05:28:59;;;;;;;;;;;;;;;10.17;67.24;99795.97;4979797;28;19914;-81
2023/03/15 05:32:09;;;;;;;;;;;;;;;10.08;66.28;99797.94;4947464;28;19914;-79
2023/03/15 05:35:19;;;;;;;;;;;;;;;10.04;67.19;99810.63;4978228;28;19914;-82
2023/03/15 05:38:25;;;;;;;;;;;;;;;9.81;66.05;99818.31;4991026;28;19918;-78
2023/03/15 05:41:41;;;;;;;;;;;;;;;9.99;65.83;99827.13;4978466;28;19914;-78
2023/03/15 05:44:52;;;;;;;;;;;;;;;9.89;66.12;99828.31;4977687;28;19914;-80
2023/03/15 05:48:04;;;;;;;;;;;;;;;10.00;66.55;99834.94;4974978;28;19914;-79
2023/03/15 05:51:12;;;;;;;;;;;;;;;10.16;67.24;99841.34;4970652;28;19914;-79
2023/03/15 05:54:31;;;;;;;;;;;;;;;10.11;69.10;99844.25;4989780;28;19913;-82
2023/03/15 05:57:50;;;;;;;;;;;;;;;10.22;70.58;99841.94;4979527;28;20449;-82
2023/03/15 06:01:00;;;;;;;;;;;;;;;10.13;71.40;99844.72;4979302;28;19918;-78
2023/03/15 06:04:07;;;;;;;;;;;;;;;10.14;73.09;99865.34;4980530;28;19918;-78
2023/03/15 06:06:59;;;;;;;;;;;;;;;10.29;73.62;99866.66;4978233;28;19914;-78
2023/03/15 06:09:51;;;;;;;;;;;;;;;10.08;75.02;99869.38;4979287;28;19914;-78
2023/03/15 06:12:43;;;;;;;;;;;;;;;9.90;76.92;99869.84;4972436;28;19914;-81
2023/03/15 06:15:36;;;;;;;;;;;;;;;9.25;78.57;99877.41;4988222;28;19914;-82
2023/03/15 06:18:28;;;;;;;;;;;;;;;9.05;79.18;99886.28;4978734;28;19918;-82
2023/03/15 06:21:21;;;;;;;;;;;;;;;8.75;81.34;99880.00;4992020;28;19918;-82
2023/03/15 06:24:13;;;;;;;;;;;;;;;9.27;79.17;99885.25;4982391;28;19922;-79
2023/03/15 06:27:02;;;;;;;;;;;;;;;11.13;74.27;99889.75;4978278;28;20377;-82
2023/03/15 06:29:57;;;;;;;;;;;;;;;12.43;64.87;99894.91;4980348;28;19917;-81
2023/03/15 06:32:49;;;;;;;;;;;;;;;13.85;61.05;99898.50;4972765;28;19914;-80
2023/03/15 06:35:41;;;;;;;;;;;;;;;13.54;61.49;99899.34;4979226;28;19914;-83
2023/03/15 06:38:33;;;;;;;;;;;;;;;13.91;59.78;99908.78;4973760;28;19917;-83
2023/03/15 06:41:25;;;;;;;;;;;;;;;15.70;56.26;99914.50;4974033;28;19917;-82
2023/03/15 06:44:20;;;;;;;;;;;;;;;15.08;56.13;99921.28;4986252;28;19913;-82
2023/03/15 06:47:13;;;;;;;;;;;;;;;18.09;48.03;99933.09;4968616;28;20378;-83
2023/03/15 06:50:06;;;;;;;;;;;;;;;20.44;41.44;99928.28;4954488;29;19922;-83
2023/03/15 06:52:56;;;;;;;;;;;;;;;20.84;39.83;99937.94;4967725;28;19918;-82
2023/03/15 06:55:49;;;;;;;;;;;;;;;20.05;41.92;99933.91;4960139;28;19914;-83
2023/03/15 06:58:41;;;;;;;;;;;;;;;18.56;45.51;99935.72;4961390;28;19914;-83
2023/03/15 07:01:30;;;;;;;;;;;;;;;15.92;53.24;99926.56;4970251;28;20117;-83
2023/03/15 07:04:22;;;;;;;;;;;;;;;12.51;63.41;99923.16;5000272;28;20384;-85
2023/03/15 07:07:14;;;;;;;;;;;;;;;12.55;65.12;99919.38;5000440;28;20369;-83
2023/03/15 07:10:06;;;;;;;;;;;;;;;12.53;66.60;99921.69;5000731;28;19914;-83
2023/03/15 07:12:58;;;;;;;;;;;;;;;12.36;68.31;99927.41;4977872;28;19914;-80
2023/03/15 07:15:52;;;;;;;;;;;;;;;12.80;65.37;99923.59;4995987;28;19914;-78
2023/03/15 07:18:42;;;;;;;;;;;;;;;13.07;60.49;99923.88;4980996;28;19918;-79
2023/03/15 07:21:34;;;;;;;;;;;;;;;13.34;57.83;99927.72;4987351;28;19914;-82
2023/03/15 07:24:26;;;;;;;;;;;;;;;13.88;57.14;99939.56;4982811;28;19914;-83
2023/03/15 07:27:16;;;;;;;;;;;;;;;13.91;51.83;99940.78;4967164;28;19914;-84
2023/03/15 07:30:08;;;;;;;;;;;;;;;14.00;51.76;99939.44;4984215;28;19913;-82
2023/03/15 07:33:00;;;;;;;;;;;;;;;14.02;54.13;99945.34;4975276;28;19914;-81
2023/03/15 07:35:52;;;;;;;;;;;;;;;14.13;54.43;99949.09;4978221;28;19921;-83
2023/03/15 07:38:44;;;;;;;;;;;;;;;14.32;54.63;99961.22;4980190;28;19918;-82
2023/03/15 07:41:35;;;;;;;;;;;;;;;14.26;53.04;99962.66;4979147;28;19914;-81
2023/03/15 07:44:36;;;;;;;;;;;;;;;14.31;54.42;99976.84;4974388;28;20286;-82
2023/03/15 07:47:26;;;;;;;;;;;;;;;14.34;52.91;99987.06;4990533;28;19913;-81
2023/03/15 07:50:15;;;;;;;;;;;;;;;14.35;52.95;99983.19;4974784;28;19914;-82
2023/03/15 07:53:07;;;;;;;;;;;;;;;14.64;50.41;99992.00;4956834;28;20306;-82
2023/03/15 07:55:59;;;;;;;;;;;;;;;14.80;49.95;99992.72;4954839;29;19915;-83
2023/03/15 07:58:51;;;;;;;;;;;;;;;15.06;50.69;99998.31;4958502;28;19918;-81
2023/03/15 08:01:38;;;;;;;;;;;;;;;15.18;47.18;99998.16;4956190;28;19915;-82
2023/03/15 08:04:30;;;;;;;;;;;;;;;15.18;45.95;100003.66;4954563;29;19914;-82
2023/03/15 08:07:19;;;;;;;;;;;;;;;15.31;41.41;100004.25;4970715;28;19976;-82
2023/03/15 08:10:06;;;;;;;;;;;;;;;15.38;42.71;100015.34;4981938;28;20293;-81
2023/03/15 08:12:59;;;;;;;;;;;;;;;15.35;36.80;100007.84;4972973;28;19918;-81
2023/03/15 08:15:50;;;;;;;;;;;;;;;15.29;38.13;100023.78;4976931;28;20374;-82
2023/03/15 08:18:40;;;;;;;;;;;;;;;15.47;37.83;100020.59;4973256;28;19913;-81
2023/03/15 08:21:32;;;;;;;;;;;;;;;15.42;40.82;100032.66;4976534;28;19914;-81
2023/03/15 08:24:24;;;;;;;;;;;;;;;15.64;43.58;100045.59;4976524;28;19914;-81
2023/03/15 08:27:16;;;;;;;;;;;;;;;15.51;41.06;100054.31;4969465;28;19914;-82
2023/03/15 08:30:08;;;;;;;;;;;;;;;15.58;39.68;100047.06;4971611;28;19914;-82
2023/03/15 08:33:01;;;;;;;;;;;;;;;15.66;39.83;100059.72;4958942;28;20293;-82
2023/03/15 08:35:56;;;;;;;;;;;;;;;15.70;36.38;100057.81;4976840;28;19933;-81
2023/03/15 08:38:48;;;;;;;;;;;;;;;15.66;35.73;100056.19;4981409;28;19914;-82
2023/03/15 08:41:38;;;;;;;;;;;;;;;15.70;40.28;100066.03;4979157;28;20389;-83
2023/03/15 08:44:30;;;;;;;;;;;;;;;15.82;39.21;100065.88;4981148;28;19914;-81
2023/03/15 08:47:23;;;;;;;;;;;;;;;15.87;36.44;100070.25;4977734;28;19914;-80
2023/03/15 08:50:15;;;;;;;;;;;;;;;15.88;34.54;100068.31;4977674;28;19914;-81
2023/03/15 08:53:06;;;;;;;;;;;;;;;15.87;36.43;100081.22;4983165;28;19914;-81
2023/03/15 08:55:58;;;;;;;;;;;;;;;15.90;34.55;100085.97;4978607;28;19914;-81
2023/03/15 08:58:50;;;;;;;;;;;;;;;15.80;34.66;100095.59;4981883;28;19914;-80
2023/03/15 09:01:42;;;;;;;;;;;;;;;15.84;31.38;100095.69;4978493;28;19914;-80
2023/03/15 09:04:34;;;;;;;;;;;;;;;15.69;30.71;100102.88;4977668;28;19914;-81
2023/03/15 09:07:26;;;;;;;;;;;;;;;15.66;31.71;100106.31;4981863;28;19918;-82
2023/03/15 09:10:18;;;;;;;;;;;;;;;15.79;33.61;100101.47;4977236;28;20317;-80
2023/03/15 09:13:10;;;;;;;;;;;;;;;15.85;30.62;100104.69;4976592;28;19914;-81
2023/03/15 09:16:02;;;;;;;;;;;;;;;16.06;43.93;100125.03;4973001;28;19914;-82
2023/03/15 09:18:52;;;;;;;;;;;;;;;16.04;46.60;100143.81;4977842;28;20378;-82
2023/03/15 09:21:43;;;;;;;;;;;;;;;16.09;44.70;100140.78;4975320;28;20301;-81
2023/03/15 09:24:35;;;;;;;;;;;;;;;16.08;47.48;100149.38;4968509;28;19914;-81
2023/03/15 09:27:27;;;;;;;;;;;;;;;16.08;47.66;100149.38;4980717;28;19913;-80
2023/03/15 09:30:20;;;;;;;;;;;;;;;15.90;48.99;100160.00;4971137;28;19914;-81
2023/03/15 09:33:13;;;;;;;;;;;;;;;15.80;50.60;100161.41;4970854;28;19914;-80
2023/03/15 09:36:05;;;;;;;;;;;;;;;15.83;51.05;100159.91;4973544;28;19914;-80
2023/03/15 09:38:55;;;;;;;;;;;;;;;15.75;50.96;100169.91;4977691;28;19913;-82
2023/03/15 09:41:48;;;;;;;;;;;;;;;15.78;52.34;100176.63;4975261;28;19926;-80
2023/03/15 09:44:53;;;;;;;;;;;;;;;15.79;52.43;100180.97;4978303;28;19914;-81
2023/03/15 09:47:48;;;;;;;;;;;;;;;15.83;53.18;100188.09;4976145;28;19914;-80
2023/03/15 09:50:40;;;;;;;;;;;;;;;15.80;51.00;100198.97;4972951;28;19918;-82
2023/03/15 09:53:35;;;;;;;;;;;;;;;15.71;50.68;100188.25;4974254;28;19914;-82
2023/03/15 09:56:32;;;;;;;;;;;;;;;15.76;51.39;100196.19;4975229;28;19918;-82
2023/03/15 09:59:27;;;;;;;;;;;;;;;15.83;50.36;100203.75;4978513;28;19918;-81
2023/03/15 10:02:24;;;;;;;;;;;;;;;15.90;51.16;100205.84;4975476;28;19914;-81
2023/03/15 10:05:18;;;;;;;;;;;;;;;16.25;50.01;100206.50;4983560;28;19913;-82
2023/03/15 10:08:17;;;;;;;;;;;;;;;16.20;50.46;100215.78;4981664;28;19914;-83
2023/03/15 10:11:07;;;;;;;;;;;;;;;16.35;51.77;100216.06;4983386;28;19917;-83
2023/03/15 10:14:15;;;;;;;;;;;;;;;16.21;51.10;100220.13;4974370;28;20288;-82
2023/03/15 10:17:09;;;;;;;;;;;;;;;16.34;52.52;100236.44;4990948;28;20373;-83
2023/03/15 10:20:19;;;;;;;;;;;;;;;16.41;51.14;100233.78;4961552;28;19918;-83
2023/03/15 10:23:15;;;;;;;;;;;;;;;16.64;49.93;100235.41;4982052;28;19913;-82
2023/03/15 10:26:07;;;;;;;;;;;;;;;16.66;49.38;100235.03;4994440;28;19913;-83
2023/03/15 10:28:56;;;;;;;;;;;;;;;16.62;49.55;100231.44;5000817;28;19914;-83
2023/03/15 10:31:46;;;;;;;;;;;;;;;16.44;49.30;100238.56;4997058;28;20301;-83
2023/03/15 10:34:38;;;;;;;;;;;;;;;16.23;47.68;100237.03;4979948;28;19914;-83
2023/03/15 10:37:28;;;;;;;;;;;;;;;16.26;49.09;100249.22;4984705;28;19913;-82
2023/03/15 10:40:38;;;;;;;;;;;;;;;16.24;48.15;100257.84;5000393;28;19918;-83
2023/03/15 10:43:35;;;;;;;;;;;;;;;16.10;46.86;100256.78;4981197;28;19914;-84
2023/03/15 10:46:27;;;;;;;;;;;;;;;16.13;42.52;100254.09;4974755;28;19914;-83
2023/03/15 10:49:16;;;;;;;;;;;;;;;16.10;41.99;100268.50;4987608;28;19914;-83
2023/03/15 10:52:08;;;;;;;;;;;;;;;16.09;45.39;100272.44;5027555;23;19921;-77
2023/03/15 10:55:16;;;;;;;;;;;;;;;16.07;40.17;100279.44;5004171;28;20300;-78
2023/03/15 10:58:29;;;;;;;;;;;;;;;16.05;36.98;100285.28;5008081;28;19921;-79
2023/03/15 11:01:35;;;;;;;;;;;;;;;16.36;41.93;100278.00;5012334;28;19918;-79
2023/03/15 11:04:29;;;;;;;;;;;;;;;16.30;28.71;100272.03;5001583;28;19914;-80
2023/03/15 11:07:21;;;;;;;;;;;;;;;16.30;30.91;100287.72;5016982;28;20301;-79
2023/03/15 11:10:19;;;;;;;;;;;;;;;16.27;32.01;100279.03;5021860;28;19913;-80
2023/03/15 11:13:19;;;;;;;;;;;;;;;16.30;24.72;100274.78;5009041;28;19913;-80
2023/03/15 11:16:17;;;;;;;;;;;;;;;16.34;28.17;100280.34;5014818;28;19913;-80
2023/03/15 11:19:11;;;;;;;;;;;;;;;16.24;24.06;100279.00;5018347;28;19913;-80
2023/03/15 11:22:01;;;;;;;;;;;;;;;16.31;26.76;100287.34;5005037;28;19917;-80
2023/03/15 11:24:53;;;;;;;;;;;;;;;16.18;22.11;100278.50;5000651;28;19913;-80
2023/03/15 11:27:45;;;;;;;;;;;;;;;16.29;25.13;100289.66;5000329;28;20280;-77
2023/03/15 11:30:40;;;;;;;;;;;;;;;16.40;26.59;100303.59;5000736;28;19918;-80
2023/03/15 11:33:44;;;;;;;;;;;;;;;16.48;24.58;100343.72;5000938;28;19921;-80
2023/03/15 11:36:37;;;;;;;;;;;;;;;16.04;41.78;100366.00;5014570;28;19913;-80
2023/03/15 11:39:34;;;;;;;;;;;;;;;15.41;45.56;100346.94;5018230;28;19925;-77
2023/03/15 11:42:29;;;;;;;;;;;;;;;15.10;46.68;100368.88;5009640;28;19913;-77
2023/03/15 11:45:22;;;;;;;;;;;;;;;15.15;47.42;100345.91;5000652;28;19914;-79
2023/03/15 11:48:20;;;;;;;;;;;;;;;15.06;48.03;100370.75;5000623;28;19914;-78
2023/03/15 11:51:14;;;;;;;;;;;;;;;15.08;47.94;100370.41;5010747;28;20296;-78
2023/03/15 11:54:10;;;;;;;;;;;;;;;15.05;46.54;100368.34;5007503;28;19913;-77
2023/03/15 11:57:05;;;;;;;;;;;;;;;15.04;46.80;100366.75;5013063;28;19913;-79
2023/03/15 11:59:57;;;;;;;;;;;;;;;14.94;46.10;100357.13;5020251;28;19917;-78
2023/03/15 12:02:52;;;;;;;;;;;;;;;14.88;48.00;100353.09;5007466;28;19921;-78
2023/03/15 12:05:45;;;;;;;;;;;;;;;14.69;48.04;100352.97;5016279;28;19913;-79
2023/03/15 12:08:37;;;;;;;;;;;;;;;14.66;49.55;100343.53;5021856;28;20004;-78
2023/03/15 12:11:30;;;;;;;;;;;;;;;14.74;50.35;100355.44;5017074;28;20312;-78
2023/03/15 12:14:29;;;;;;;;;;;;;;;14.80;49.20;100359.50;5023506;28;20106;-78
2023/03/15 12:17:39;;;;;;;;;;;;;;;15.02;49.58;100356.19;5019914;28;19968;-78
2023/03/15 12:20:36;;;;;;;;;;;;;;;15.05;49.82;100352.72;5020455;28;19917;-78
2023/03/15 12:23:36;;;;;;;;;;;;;;;15.05;49.32;100346.44;5023625;28;19913;-81
2023/03/15 12:26:37;;;;;;;;;;;;;;;15.18;46.83;100350.69;5013904;28;19913;-81
2023/03/15 12:29:30;;;;;;;;;;;;;;;15.25;49.19;100343.44;5011389;28;19913;-80
2023/03/15 12:32:22;;;;;;;;;;;;;;;15.54;47.86;100341.41;5019432;28;20393;-80
2023/03/15 12:35:19;;;;;;;;;;;;;;;15.28;49.63;100347.41;5015203;28;19918;-81
2023/03/15 12:38:24;;;;;;;;;;;;;;;15.39;48.81;100354.72;5011055;28;19913;-80
2023/03/15 12:41:32;;;;;;;;;;;;;;;15.24;50.74;100347.31;5011064;28;19918;-76
2023/03/15 12:44:36;;;;;;;;;;;;;;;15.37;51.26;100348.81;5008780;28;19914;-79
2023/03/15 12:47:25;;;;;;;;;;;;;;;15.55;49.67;100340.22;5004177;28;19914;-77
2023/03/15 12:50:34;;;;;;;;;;;;;;;15.38;47.57;100339.44;5022157;28;20288;-78
2023/03/15 12:53:26;;;;;;;;;;;;;;;15.49;49.65;100344.38;5006071;28;19913;-78
2023/03/15 12:56:28;;;;;;;;;;;;;;;15.58;48.91;100339.53;4998146;28;19914;-76
2023/03/15 12:59:44;;;;;;;;;;;;;;;15.65;48.00;100334.19;5014585;28;19914;-79
2023/03/15 13:02:44;;;;;;;;;;;;;;;15.66;48.40;100333.03;5016047;28;20369;-78
2023/03/15 13:05:57;;;;;;;;;;;;;;;15.64;48.61;100327.13;5016871;28;19913;-79
2023/03/15 13:08:58;;;;;;;;;;;;;;;15.60;49.19;100321.56;5010275;28;19921;-78
2023/03/15 13:12:13;;;;;;;;;;;;;;;15.76;48.69;100329.72;5011820;28;19921;-78
2023/03/15 13:15:13;;;;;;;;;;;;;;;15.81;48.83;100322.00;4994077;28;19914;-80
2023/03/15 13:18:16;;;;;;;;;;;;;;;15.94;48.17;100319.16;5009079;28;19921;-80
2023/03/15 13:21:20;;;;;;;;;;;;;;;15.98;47.84;100311.78;5014887;28;19917;-83
2023/03/15 13:24:18;;;;;;;;;;;;;;;16.11;47.74;100327.72;5018069;28;19913;-81
2023/03/15 13:27:22;;;;;;;;;;;;;;;16.23;47.94;100333.06;5011009;28;19914;-83
2023/03/15 13:30:30;;;;;;;;;;;;;;;16.24;47.66;100317.41;5013930;28;20284;-82
2023/03/15 13:33:25;;;;;;;;;;;;;;;16.25;46.78;100328.00;4998215;28;20488;-83
2023/03/15 13:36:18;;;;;;;;;;;;;;;16.31;46.09;100333.97;5005158;28;20373;-83
2023/03/15 13:39:39;;;;;;;;;;;;;;;16.46;45.74;100335.84;5011653;28;19917;-83
2023/03/15 13:42:29;;;;;;;;;;;;;;;16.56;45.69;100339.94;4990184;28;19917;-82
2023/03/15 13:45:19;;;;;;;;;;;;;;;16.69;43.49;100335.91;5012184;28;19913;-83
2023/03/15 13:48:08;;;;;;;;;;;;;;;16.74;42.92;100340.28;5012357;28;19913;-83
2023/03/15 13:51:04;;;;;;;;;;;;;;;16.75;43.58;100339.94;5016294;28;19913;-83
2023/03/15 13:54:02;;;;;;;;;;;;;;;16.88;43.46;100335.84;5023686;28;19913;-82
2023/03/15 13:57:03;;;;;;;;;;;;;;;16.99;42.30;100334.06;5023128;28;19913;-82
2023/03/15 13:59:58;;;;;;;;;;;;;;;16.88;40.39;100341.34;5019929;28;20320;-82
2023/03/15 14:02:52;;;;;;;;;;;;;;;17.02;41.36;100333.31;5010042;28;19913;-83
2023/03/15 14:05:48;;;;;;;;;;;;;;;17.16;40.81;100337.47;5015662;28;19913;-83
2023/03/15 14:08:41;;;;;;;;;;;;;;;17.16;40.14;100340.22;5021690;28;20381;-82
2023/03/15 14:11:35;;;;;;;;;;;;;;;17.14;40.32;100337.84;5001934;28;19913;-82
2023/03/15 14:14:25;;;;;;;;;;;;;;;17.14;39.44;100340.59;5000500;28;19913;-82
2023/03/15 14:17:21;;;;;;;;;;;;;;;17.17;39.48;100344.56;5008175;28;19913;-84
2023/03/15 14:20:16;;;;;;;;;;;;;;;17.19;38.53;100345.75;5017011;28;19917;-82
2023/03/15 14:23:11;;;;;;;;;;;;;;;17.26;39.04;100353.34;5011745;28;19913;-84
2023/03/15 14:26:05;;;;;;;;;;;;;;;17.23;39.66;100349.34;5010217;28;19913;-83
2023/03/15 14:29:06;;;;;;;;;;;;;;;17.24;38.86;100358.41;5016080;28;20365;-83
2023/03/15 14:31:57;;;;;;;;;;;;;;;17.24;38.66;100369.38;4997939;28;19914;-83
2023/03/15 14:34:49;;;;;;;;;;;;;;;17.24;38.17;100358.41;5000991;28;19914;-83
2023/03/15 14:37:41;;;;;;;;;;;;;;;17.22;37.48;100367.00;5004700;28;19913;-83
2023/03/15 14:40:38;;;;;;;;;;;;;;;17.29;36.56;100364.38;5020813;28;19922;-83
2023/03/15 14:43:29;;;;;;;;;;;;;;;17.38;36.15;100367.66;5019048;28;19913;-83
2023/03/15 14:46:21;;;;;;;;;;;;;;;17.42;35.62;100367.72;5013789;28;19914;-83
2023/03/15 14:49:11;;;;;;;;;;;;;;;17.47;36.10;100376.44;5011871;28;19913;-83
2023/03/15 14:52:03;;;;;;;;;;;;;;;17.50;36.77;100367.47;5015498;28;19917;-83
2023/03/15 14:54:55;;;;;;;;;;;;;;;17.46;36.06;100385.88;5014040;28;20380;-83
2023/03/15 14:57:47;;;;;;;;;;;;;;;17.51;35.39;100374.56;5013473;28;20376;-85
2023/03/15 15:00:36;;;;;;;;;;;;;;;17.38;34.64;100380.59;5023720;28;19917;-83
2023/03/15 15:03:39;;;;;;;;;;;;;;;17.41;34.59;100379.88;5016681;28;19913;-84
2023/03/15 15:06:30;;;;;;;;;;;;;;;17.46;33.59;100374.88;5009960;28;19914;-83
2023/03/15 15:09:22;;;;;;;;;;;;;;;17.49;34.05;100376.06;5018739;28;19913;-83
2023/03/15 15:12:12;;;;;;;;;;;;;;;17.41;34.02;100377.94;4985509;28;19914;-83